Time;durP1;ratioP1;P1;durP2;ratioP2;P2;SDS_P1;SDS_P2;PMS_P1;PMS_P2;Temp;Humidity;BMP_temperature;BMP_pressure;BME280_temperature;BME280_humidity;BME280_pressure;Samples;Min_cycle;Max_cycle;Signal;HPM_P1;HPM_P2
2022/06/17 00:00:19;;;;;;;2.55;1.70;;;22.40;57.50;;;;;;5071904;28;20072;-61
2022/06/17 00:02:45;;;;;;;3.95;1.70;;;22.40;57.50;;;;;;5071403;28;20048;-61
2022/06/17 00:05:11;;;;;;;3.47;2.00;;;22.40;57.50;;;;;;5071893;28;20051;-61
2022/06/17 00:07:36;;;;;;;4.80;1.90;;;22.40;57.50;;;;;;5072060;28;20037;-61
2022/06/17 00:10:03;;;;;;;3.70;1.70;;;22.40;57.50;;;;;;5070044;28;20514;-61
2022/06/17 00:12:28;;;;;;;3.10;1.70;;;22.40;57.50;;;;;;5072204;28;20527;-61
2022/06/17 00:15:12;;;;;;;3.65;1.70;;;22.40;57.50;;;;;;5071438;28;20131;-61
2022/06/17 00:17:37;;;;;;;3.53;1.45;;;22.40;57.50;;;;;;5071505;28;20044;-61
2022/06/17 00:20:07;;;;;;;3.47;1.85;;;22.40;57.50;;;;;;5071977;28;20491;-61
2022/06/17 00:22:33;;;;;;;2.83;1.55;;;22.40;57.60;;;;;;5072485;28;20060;-61
2022/06/17 00:24:59;;;;;;;3.85;1.50;;;22.40;57.50;;;;;;5070683;28;20574;-61
2022/06/17 00:27:24;;;;;;;3.13;1.73;;;22.40;57.50;;;;;;5070784;28;20139;-61
2022/06/17 00:29:50;;;;;;;3.38;1.63;;;22.40;57.60;;;;;;5071737;28;20081;-61
2022/06/17 00:32:15;;;;;;;3.15;1.70;;;22.40;57.60;;;;;;5071496;28;20048;-61
2022/06/17 00:34:41;;;;;;;3.80;1.80;;;22.40;57.60;;;;;;5075100;28;20051;-61
2022/06/17 00:37:09;;;;;;;2.83;1.88;;;22.40;57.60;;;;;;5075229;28;20040;-60
2022/06/17 00:39:35;;;;;;;2.72;1.90;;;22.40;57.60;;;;;;5074551;28;20476;-61
2022/06/17 00:42:11;;;;;;;3.38;1.98;;;22.30;57.60;;;;;;5075568;28;20059;-61
2022/06/17 00:44:42;;;;;;;3.42;1.80;;;22.40;57.60;;;;;;5072840;28;20500;-61
2022/06/17 00:47:15;;;;;;;3.47;1.80;;;22.40;57.70;;;;;;5073760;28;20067;-61
2022/06/17 00:50:22;;;;;;;4.28;1.90;;;22.40;57.60;;;;;;5074700;28;20051;-61
2022/06/17 00:53:11;;;;;;;2.97;1.60;;;22.30;57.60;;;;;;5066418;28;20052;-61
2022/06/17 00:55:42;;;;;;;2.70;1.60;;;22.30;57.70;;;;;;5074361;28;20041;-61
2022/06/17 00:58:16;;;;;;;3.55;1.65;;;22.30;57.70;;;;;;5073244;28;20508;-61
2022/06/17 01:00:42;;;;;;;3.03;1.67;;;22.30;57.70;;;;;;5074022;28;20107;-61
2022/06/17 01:03:10;;;;;;;3.60;1.80;;;22.30;57.70;;;;;;5074335;28;20061;-61
2022/06/17 01:05:49;;;;;;;3.75;1.83;;;22.30;57.70;;;;;;5073167;28;20088;-61
2022/06/17 01:11:14;;;;;;;2.65;1.67;;;22.30;57.70;;;;;;5074197;28;20131;-61
2022/06/17 01:13:40;;;;;;;3.40;1.60;;;22.30;57.70;;;;;;5072630;28;20090;-61
2022/06/17 01:16:06;;;;;;;2.80;1.60;;;22.30;57.70;;;;;;5073505;28;20041;-61
2022/06/17 01:18:33;;;;;;;4.03;1.85;;;22.30;57.70;;;;;;5075083;28;20036;-61
2022/06/17 01:21:00;;;;;;;2.35;1.52;;;22.20;57.70;;;;;;5072753;28;20080;-61
2022/06/17 01:23:26;;;;;;;2.78;1.80;;;22.20;57.70;;;;;;5073676;28;20041;-61
2022/06/17 01:25:53;;;;;;;3.97;1.83;;;22.30;57.80;;;;;;5072895;28;20059;-61
2022/06/17 01:28:18;;;;;;;3.58;1.90;;;22.20;57.70;;;;;;5073453;28;20059;-61
2022/06/17 01:30:52;;;;;;;2.35;1.60;;;22.30;57.80;;;;;;5074261;28;20040;-61
2022/06/17 01:33:22;;;;;;;2.60;1.80;;;22.20;57.80;;;;;;5070882;28;20098;-61
2022/06/17 01:35:59;;;;;;;3.03;2.00;;;22.20;57.70;;;;;;5073279;28;20048;-61
2022/06/17 01:38:24;;;;;;;3.20;1.88;;;22.20;57.70;;;;;;5073442;28;20048;-61
2022/06/17 01:40:51;;;;;;;2.90;1.77;;;22.20;57.80;;;;;;5072344;28;20115;-61
2022/06/17 01:43:17;;;;;;;4.18;1.80;;;22.20;57.80;;;;;;5072987;28;20093;-61
2022/06/17 01:45:48;;;;;;;3.90;2.17;;;22.20;57.70;;;;;;5071518;28;20051;-61
2022/06/17 01:48:13;;;;;;;1.90;1.48;;;22.20;57.80;;;;;;5071410;28;20056;-61
2022/06/17 01:50:39;;;;;;;3.22;1.60;;;22.20;57.80;;;;;;5072958;28;20041;-61
2022/06/17 01:53:15;;;;;;;3.25;1.50;;;22.20;57.80;;;;;;5074506;28;20132;-61
2022/06/17 01:55:43;;;;;;;4.05;1.95;;;22.20;57.80;;;;;;5072076;28;20441;-61
2022/06/17 01:58:15;;;;;;;3.30;2.10;;;22.20;57.80;;;;;;5072904;28;20037;-61
2022/06/17 02:00:42;;;;;;;3.15;1.60;;;22.20;57.80;;;;;;5073093;28;20080;-61
2022/06/17 02:03:35;;;;;;;2.30;1.70;;;22.20;57.80;;;;;;5069644;28;20128;-61
2022/06/17 02:06:06;;;;;;;3.08;1.77;;;22.20;57.80;;;;;;5072747;28;20128;-61
2022/06/17 02:08:32;;;;;;;2.90;1.70;;;22.20;57.80;;;;;;5073631;28;20044;-61
2022/06/17 02:10:57;;;;;;;3.17;1.70;;;22.20;57.80;;;;;;5073987;28;20035;-61
2022/06/17 02:13:23;;;;;;;2.38;1.60;;;22.20;57.80;;;;;;5072362;28;20139;-61
2022/06/17 02:15:48;;;;;;;2.58;1.85;;;22.20;57.80;;;;;;5071044;28;20052;-61
2022/06/17 02:18:15;;;;;;;2.95;1.92;;;22.20;57.80;;;;;;5071178;28;20044;-61
2022/06/17 02:20:41;;;;;;;2.75;1.42;;;22.20;57.80;;;;;;5072456;28;20048;-61
2022/06/17 02:23:07;;;;;;;2.40;1.80;;;22.10;57.70;;;;;;5071702;28;20041;-61
2022/06/17 02:25:42;;;;;;;2.88;1.80;;;22.20;57.80;;;;;;5071889;28;20059;-61
2022/06/17 02:28:07;;;;;;;3.58;1.70;;;22.20;57.80;;;;;;5071946;28;20135;-61
2022/06/17 02:30:33;;;;;;;2.72;1.77;;;22.20;57.90;;;;;;5071721;28;20124;-61
2022/06/17 02:33:01;;;;;;;3.13;1.50;;;22.10;57.80;;;;;;5071644;28;20483;-61
2022/06/17 02:35:32;;;;;;;2.88;2.10;;;22.20;57.90;;;;;;5073559;28;20048;-61
2022/06/17 02:37:57;;;;;;;3.63;1.90;;;22.10;57.80;;;;;;5072472;28;20052;-61
2022/06/17 02:40:36;;;;;;;3.03;1.70;;;22.10;57.80;;;;;;5073807;28;20036;-61
2022/06/17 02:43:10;;;;;;;3.33;1.80;;;22.10;57.80;;;;;;5071709;28;20424;-61
2022/06/17 02:45:39;;;;;;;3.92;1.80;;;22.10;57.80;;;;;;5070080;28;20048;-60
2022/06/17 02:48:15;;;;;;;2.60;1.70;;;22.10;57.90;;;;;;5071934;28;20189;-61
2022/06/17 02:50:41;;;;;;;2.95;1.60;;;22.10;57.90;;;;;;5071991;28;20044;-61
2022/06/17 02:53:07;;;;;;;3.00;1.80;;;22.10;57.90;;;;;;5073334;28;20040;-61
2022/06/17 02:55:35;;;;;;;2.80;1.80;;;22.10;57.90;;;;;;5071654;28;20400;-62
2022/06/17 02:58:32;;;;;;;2.75;1.50;;;22.10;58.00;;;;;;5054140;28;20841;-61
2022/06/17 03:00:58;;;;;;;3.17;1.60;;;22.10;57.90;;;;;;5055306;28;20102;-61
2022/06/17 03:03:23;;;;;;;3.20;1.58;;;22.10;58.00;;;;;;5072967;28;20044;-61
2022/06/17 03:05:49;;;;;;;2.20;1.65;;;22.00;57.90;;;;;;5070535;28;20059;-61
2022/06/17 03:08:29;;;;;;;2.85;1.70;;;22.10;58.00;;;;;;5071560;28;20045;-61
2022/06/17 03:10:56;;;;;;;1.90;1.58;;;22.00;57.90;;;;;;5071332;28;20480;-60
2022/06/17 03:13:36;;;;;;;2.80;1.67;;;22.00;58.00;;;;;;5071361;28;20036;-60
2022/06/17 03:16:03;;;;;;;2.40;1.65;;;22.10;58.00;;;;;;5072427;28;20508;-60
2022/06/17 03:18:29;;;;;;;2.70;1.80;;;22.00;58.00;;;;;;5071854;28;20032;-60
2022/06/17 03:20:54;;;;;;;2.97;1.95;;;22.00;58.00;;;;;;5071807;28;20511;-60
2022/06/17 03:23:24;;;;;;;2.65;1.77;;;22.00;58.00;;;;;;5071646;28;20043;-60
2022/06/17 03:26:02;;;;;;;2.67;1.60;;;22.10;58.10;;;;;;5070111;28;20059;-60
2022/06/17 03:28:35;;;;;;;3.42;1.75;;;22.00;58.00;;;;;;5072650;28;20083;-60
2022/06/17 03:31:11;;;;;;;2.63;1.50;;;22.00;58.00;;;;;;5071209;28;20074;-60
2022/06/17 03:33:45;;;;;;;2.28;1.65;;;22.00;58.00;;;;;;5070996;28;20040;-60
2022/06/17 03:36:37;;;;;;;3.10;1.70;;;22.00;58.10;;;;;;5071239;28;20037;-60
2022/06/17 03:39:05;;;;;;;3.83;1.90;;;22.00;58.00;;;;;;5070981;28;20123;-60
2022/06/17 03:42:01;;;;;;;2.95;1.65;;;22.00;57.60;;;;;;5070880;28;20045;-60
2022/06/17 03:44:34;;;;;;;3.03;1.90;;;22.00;58.10;;;;;;5067426;28;20052;-60
2022/06/17 03:47:20;;;;;;;2.15;1.55;;;21.90;58.10;;;;;;5069378;28;20418;-60
2022/06/17 03:49:54;;;;;;;2.67;1.70;;;22.00;58.20;;;;;;5069726;28;20507;-60
2022/06/17 03:52:43;;;;;;;2.55;1.58;;;21.90;58.00;;;;;;5072332;28;20511;-60
2022/06/17 03:55:13;;;;;;;1.75;1.48;;;21.90;58.00;;;;;;5069687;28;20056;-60
2022/06/17 03:57:38;;;;;;;2.97;1.83;;;21.90;58.00;;;;;;5070479;28;20074;-60
2022/06/17 04:00:04;;;;;;;2.90;1.63;;;22.00;58.10;;;;;;5069236;28;20569;-61
2022/06/17 04:02:32;;;;;;;2.90;1.90;;;22.00;58.10;;;;;;5064500;28;20037;-60
2022/06/17 04:04:57;;;;;;;3.23;1.73;;;21.90;58.00;;;;;;5050161;28;20059;-60
2022/06/17 04:07:23;;;;;;;2.28;1.77;;;22.00;58.10;;;;;;5050303;28;20037;-60
2022/06/17 04:09:49;;;;;;;2.38;1.60;;;21.90;58.00;;;;;;5053771;28;20077;-60
2022/06/17 04:12:25;;;;;;;3.20;1.65;;;22.00;58.10;;;;;;5056313;28;20037;-60
2022/06/17 04:14:58;;;;;;;2.38;1.50;;;22.00;58.20;;;;;;5055088;28;20045;-60
2022/06/17 04:17:36;;;;;;;2.78;1.58;;;22.00;58.20;;;;;;5053783;28;20094;-60
2022/06/17 04:20:10;;;;;;;3.67;2.13;;;21.90;58.20;;;;;;5055256;28;20134;-61
2022/06/17 04:22:36;;;;;;;3.47;2.03;;;22.00;58.20;;;;;;5055139;28;20044;-60
2022/06/17 04:25:03;;;;;;;2.08;1.63;;;22.00;58.30;;;;;;5054364;28;20053;-60
2022/06/17 04:27:56;;;;;;;3.83;1.90;;;21.90;58.20;;;;;;5053509;28;20551;-61
2022/06/17 04:30:17;;;;;;;2.88;1.67;;;21.90;58.30;;;;;;5054093;28;20044;-61
2022/06/17 04:32:43;;;;;;;3.15;2.28;;;22.00;58.50;;;;;;5055464;28;20119;-61
2022/06/17 04:35:12;;;;;;;2.20;1.63;;;22.00;58.30;;;;;;5054802;28;20141;-61
2022/06/17 04:37:37;;;;;;;2.75;1.90;;;21.90;58.20;;;;;;5055148;28;20049;-61
2022/06/17 04:40:03;;;;;;;3.30;1.65;;;22.00;58.30;;;;;;5055490;28;20132;-61
2022/06/17 04:42:34;;;;;;;2.60;1.70;;;22.00;58.20;;;;;;5055854;28;20087;-61
2022/06/17 04:45:00;;;;;;;2.67;1.65;;;22.00;58.30;;;;;;5053871;28;20048;-61
2022/06/17 04:47:26;;;;;;;2.65;1.80;;;21.90;58.30;;;;;;5055769;28;20431;-61
2022/06/17 04:49:59;;;;;;;3.55;1.80;;;22.00;58.30;;;;;;5055150;28;20481;-61
2022/06/17 04:52:29;;;;;;;4.05;1.75;;;22.00;58.40;;;;;;5053826;28;20048;-61
2022/06/17 04:54:55;;;;;;;2.78;1.67;;;22.00;58.40;;;;;;5054246;28;20095;-61
2022/06/17 04:57:21;;;;;;;3.63;1.80;;;21.90;58.40;;;;;;5053855;28;20073;-60
2022/06/17 04:59:47;;;;;;;2.28;1.52;;;22.00;58.40;;;;;;5055197;28;20073;-61
2022/06/17 05:02:21;;;;;;;2.65;1.70;;;21.90;58.30;;;;;;5055295;28;20073;-61
2022/06/17 05:04:49;;;;;;;2.70;1.70;;;21.90;58.40;;;;;;5051999;28;20045;-61
2022/06/17 05:07:15;;;;;;;3.05;1.77;;;22.00;58.40;;;;;;5054864;28;20037;-60
2022/06/17 05:09:52;;;;;;;3.72;2.10;;;21.90;58.40;;;;;;5053729;28;20045;-61
2022/06/17 05:12:37;;;;;;;2.47;1.70;;;22.00;58.40;;;;;;5053367;28;20107;-61
2022/06/17 05:15:04;;;;;;;3.70;1.90;;;22.00;58.50;;;;;;5054976;28;20053;-61
2022/06/17 05:17:30;;;;;;;3.33;1.90;;;21.90;58.40;;;;;;5053875;28;20052;-61
2022/06/17 05:19:56;;;;;;;3.05;2.00;;;22.00;58.40;;;;;;5053942;28;20041;-60
2022/06/17 05:22:43;;;;;;;2.67;1.77;;;21.90;58.40;;;;;;5054327;28;20124;-61
2022/06/17 05:25:21;;;;;;;1.92;1.55;;;22.00;58.50;;;;;;5053343;28;20045;-61
2022/06/17 05:27:47;;;;;;;2.20;1.50;;;21.90;58.40;;;;;;5054939;28;20053;-61
2022/06/17 05:30:13;;;;;;;2.45;1.63;;;21.90;58.40;;;;;;5054580;28;20044;-61
2022/06/17 05:32:40;;;;;;;2.72;1.75;;;21.90;58.40;;;;;;5053485;28;20052;-62
2022/06/17 05:35:06;;;;;;;2.50;1.70;;;21.90;58.40;;;;;;5053590;28;20480;-62
2022/06/17 05:37:31;;;;;;;2.83;2.00;;;21.90;58.40;;;;;;5054681;28;20045;-61
2022/06/17 05:39:57;;;;;;;2.40;1.80;;;21.90;58.50;;;;;;5053328;28;20049;-61
2022/06/17 05:42:22;;;;;;;1.83;1.58;;;21.90;58.50;;;;;;5054707;28;20056;-61
2022/06/17 05:44:48;;;;;;;2.10;1.60;;;21.90;58.50;;;;;;5054197;28;20045;-62
2022/06/17 05:47:14;;;;;;;2.72;1.75;;;21.90;58.50;;;;;;5053779;28;20052;-61
2022/06/17 05:49:40;;;;;;;2.08;1.70;;;21.90;58.50;;;;;;5054257;28;20522;-61
2022/06/17 05:52:06;;;;;;;2.35;1.52;;;21.90;58.60;;;;;;5054394;28;20036;-61
2022/06/17 05:54:32;;;;;;;2.30;1.70;;;21.90;58.60;;;;;;5060063;28;20505;-61
2022/06/17 05:56:57;;;;;;;2.70;1.90;;;21.90;58.50;;;;;;5073927;28;20045;-61
2022/06/17 05:59:23;;;;;;;2.28;1.63;;;21.90;58.40;;;;;;5073914;28;20094;-61
2022/06/17 06:01:48;;;;;;;2.58;1.80;;;21.90;58.40;;;;;;5073278;28;20047;-61
2022/06/17 06:04:14;;;;;;;3.53;1.98;;;21.90;58.40;;;;;;5074279;28;20074;-61
2022/06/17 06:06:39;;;;;;;3.08;1.98;;;21.90;58.60;;;;;;5073703;28;20036;-61
2022/06/17 06:09:05;;;;;;;2.78;1.80;;;21.90;58.70;;;;;;5072994;28;20128;-61
2022/06/17 06:11:31;;;;;;;3.55;1.95;;;21.90;58.70;;;;;;5074202;28;20492;-61
2022/06/17 06:13:56;;;;;;;4.13;2.33;;;22.00;58.80;;;;;;5073617;28;20041;-61
2022/06/17 06:16:23;;;;;;;2.22;1.70;;;21.90;58.80;;;;;;5073494;28;20048;-60
2022/06/17 06:18:50;;;;;;;3.45;1.90;;;21.90;58.70;;;;;;5073954;28;20040;-61
2022/06/17 06:21:16;;;;;;;5.47;2.30;;;22.00;58.80;;;;;;5074058;28;20036;-61
2022/06/17 06:23:42;;;;;;;3.97;2.10;;;22.00;58.70;;;;;;5072691;28;20416;-61
2022/06/17 06:26:10;;;;;;;4.20;1.88;;;21.90;58.60;;;;;;5073771;28;20068;-61
2022/06/17 06:28:35;;;;;;;3.25;2.22;;;22.00;58.70;;;;;;5073858;28;20050;-60
2022/06/17 06:31:10;;;;;;;5.45;2.03;;;22.00;58.70;;;;;;5070895;28;20066;-61
2022/06/17 06:33:36;;;;;;;4.70;2.13;;;22.00;58.70;;;;;;5073697;28;20097;-61
2022/06/17 06:36:01;;;;;;;3.17;1.83;;;21.90;58.80;;;;;;5072670;28;20048;-61
2022/06/17 06:38:27;;;;;;;4.68;2.20;;;22.00;59.00;;;;;;5073502;28;20044;-61
2022/06/17 06:40:52;;;;;;;4.18;1.98;;;22.00;59.20;;;;;;5073340;28;20036;-61
2022/06/17 06:43:19;;;;;;;4.03;2.15;;;22.00;59.40;;;;;;5072026;28;20492;-61
2022/06/17 06:45:47;;;;;;;4.28;2.30;;;22.00;59.40;;;;;;5073019;28;20051;-62
2022/06/17 06:48:13;;;;;;;5.40;2.33;;;22.00;59.50;;;;;;5073401;28;20040;-61
2022/06/17 06:50:39;;;;;;;3.17;1.90;;;22.10;59.60;;;;;;5070583;28;20048;-60
2022/06/17 06:53:05;;;;;;;3.95;2.10;;;22.10;59.60;;;;;;5072553;28;20051;-61
2022/06/17 06:55:31;;;;;;;6.75;2.60;;;22.10;59.70;;;;;;5072206;28;20123;-61
2022/06/17 06:58:01;;;;;;;3.20;2.20;;;22.10;59.70;;;;;;5071908;28;20049;-61
2022/06/17 07:00:33;;;;;;;5.47;2.22;;;22.10;59.80;;;;;;5072964;28;20052;-60
2022/06/17 07:02:59;;;;;;;13.20;2.55;;;22.10;60.00;;;;;;5072324;28;20078;-60
2022/06/17 07:05:24;;;;;;;3.75;2.22;;;22.10;59.90;;;;;;5071953;28;20568;-60
2022/06/17 07:07:50;;;;;;;2.67;1.83;;;22.10;60.00;;;;;;5072741;28;20064;-61
2022/06/17 07:10:20;;;;;;;3.78;2.35;;;22.10;60.00;;;;;;5073019;28;20044;-60
2022/06/17 07:12:46;;;;;;;3.95;2.38;;;22.20;60.10;;;;;;5071919;28;20052;-60
2022/06/17 07:15:12;;;;;;;6.80;1.95;;;22.20;60.10;;;;;;5071945;28;20032;-60
2022/06/17 07:17:38;;;;;;;4.35;2.05;;;22.20;60.10;;;;;;5072455;28;20044;-60
2022/06/17 07:20:09;;;;;;;4.50;2.30;;;22.20;60.10;;;;;;5071456;28;20499;-60
2022/06/17 07:22:36;;;;;;;3.10;2.28;;;22.20;60.20;;;;;;5071111;28;20051;-60
2022/06/17 07:25:02;;;;;;;4.90;2.30;;;22.20;60.10;;;;;;5070976;28;20043;-61
2022/06/17 07:27:27;;;;;;;4.63;2.42;;;22.30;60.10;;;;;;5071961;28;20040;-61
2022/06/17 07:29:53;;;;;;;6.18;2.25;;;22.30;60.10;;;;;;5071768;28;20090;-60
2022/06/17 07:32:18;;;;;;;2.88;1.92;;;22.30;60.20;;;;;;5071544;28;20033;-61
2022/06/17 07:34:44;;;;;;;3.28;2.33;;;22.30;60.20;;;;;;5072462;28;20049;-61
2022/06/17 07:39:55;;;;;;;3.78;2.17;;;22.40;60.30;;;;;;5070573;28;20040;-60
2022/06/17 07:42:22;;;;;;;6.15;2.20;;;22.40;60.30;;;;;;5072042;28;20408;-60
2022/06/17 07:44:47;;;;;;;2.90;2.40;;;22.40;60.40;;;;;;5071591;28;20040;-60
2022/06/17 07:47:14;;;;;;;3.42;2.40;;;22.40;60.40;;;;;;5072008;28;20590;-61
2022/06/17 07:49:40;;;;;;;4.65;2.13;;;22.50;60.40;;;;;;5070962;28;20127;-61
2022/06/17 07:52:06;;;;;;;4.60;2.05;;;22.40;60.30;;;;;;5072287;28;20178;-60
2022/06/17 07:54:31;;;;;;;4.68;2.30;;;22.50;60.40;;;;;;5071483;28;20047;-61
2022/06/17 07:56:57;;;;;;;4.35;2.22;;;22.50;60.30;;;;;;5072152;28;20036;-61
2022/06/17 07:59:22;;;;;;;4.63;2.58;;;22.50;60.30;;;;;;5071310;28;20032;-60
2022/06/17 08:01:48;;;;;;;4.40;2.25;;;22.50;60.30;;;;;;5071145;28;20059;-61
2022/06/17 08:04:13;;;;;;;4.95;2.40;;;22.50;60.30;;;;;;5072145;28;20055;-60
2022/06/17 08:06:39;;;;;;;2.90;2.13;;;22.50;60.30;;;;;;5072025;28;20037;-61
2022/06/17 08:09:05;;;;;;;2.88;2.10;;;22.50;60.30;;;;;;5071523;28;20044;-61
2022/06/17 08:11:30;;;;;;;3.78;2.22;;;22.60;60.30;;;;;;5072124;28;20076;-61
2022/06/17 08:13:56;;;;;;;4.57;2.38;;;22.60;60.40;;;;;;5071737;28;20083;-60
2022/06/17 08:16:21;;;;;;;5.65;2.25;;;22.60;60.30;;;;;;5071542;28;20052;-60
2022/06/17 08:18:47;;;;;;;4.38;2.50;;;22.60;60.20;;;;;;5072100;28;20072;-60
2022/06/17 08:21:12;;;;;;;4.75;1.60;;;22.70;60.10;;;;;;5071472;28;20431;-60
2022/06/17 08:23:38;;;;;;;3.78;2.28;;;22.70;60.00;;;;;;5072088;28;20041;-59
2022/06/17 08:26:04;;;;;;;3.45;2.10;;;22.70;60.00;;;;;;5071622;28;20053;-60
2022/06/17 08:28:29;;;;;;;3.60;2.20;;;22.70;59.80;;;;;;5069697;28;20051;-60
2022/06/17 08:30:55;;;;;;;7.18;2.70;;;22.70;59.60;;;;;;5070406;28;20045;-60
2022/06/17 08:33:25;;;;;;;5.53;2.72;;;22.70;59.40;;;;;;5070602;28;20082;-62
2022/06/17 08:35:50;;;;;;;5.53;2.50;;;22.70;59.30;;;;;;5070824;28;20049;-60
2022/06/17 08:38:20;;;;;;;3.72;2.45;;;22.70;59.10;;;;;;5072233;28;20484;-61
2022/06/17 08:40:59;;;;;;;6.47;2.65;;;22.70;58.80;;;;;;5071641;28;20036;-61
2022/06/17 08:43:38;;;;;;;5.93;2.67;;;22.70;58.80;;;;;;5061407;28;20110;-61
2022/06/17 08:46:06;;;;;;;6.57;2.50;;;22.70;59.00;;;;;;5050222;28;20489;-60
2022/06/17 08:49:10;;;;;;;6.78;2.50;;;22.70;59.10;;;;;;5052044;28;20048;-61
2022/06/17 08:52:06;;;;;;;5.20;2.30;;;22.80;59.20;;;;;;5050858;28;20091;-62
2022/06/17 08:54:46;;;;;;;4.03;2.65;;;22.80;59.30;;;;;;5052510;28;20044;-62
2022/06/17 08:57:41;;;;;;;5.18;2.60;;;22.80;59.20;;;;;;5055112;28;20060;-61
2022/06/17 09:00:08;;;;;;;4.57;1.80;;;22.80;59.30;;;;;;5053661;28;20472;-61
2022/06/17 09:02:56;;;;;;;4.82;2.72;;;22.80;59.30;;;;;;5052697;28;20123;-61
2022/06/17 09:05:40;;;;;;;3.83;2.20;;;22.90;59.40;;;;;;5053896;28;20440;-60
2022/06/17 09:08:24;;;;;;;4.68;2.33;;;22.80;59.40;;;;;;5055442;28;20049;-61
2022/06/17 09:11:09;;;;;;;4.72;2.50;;;22.90;59.50;;;;;;5054024;28;20099;-60
2022/06/17 09:13:49;;;;;;;5.22;2.60;;;22.90;59.50;;;;;;5054891;28;20045;-60
2022/06/17 09:16:29;;;;;;;5.45;2.72;;;22.90;59.50;;;;;;5052804;28;20056;-60
2022/06/17 09:19:00;;;;;;;4.85;2.58;;;22.90;59.50;;;;;;5051221;28;20449;-61
2022/06/17 09:21:46;;;;;;;3.45;2.40;;;22.90;59.50;;;;;;5054862;28;20052;-60
2022/06/17 09:24:15;;;;;;;4.75;2.28;;;23.00;59.60;;;;;;5054459;28;20049;-61
2022/06/17 09:26:42;;;;;;;5.10;2.42;;;22.90;59.50;;;;;;5052284;28;20052;-61
2022/06/17 09:29:18;;;;;;;4.28;2.30;;;23.00;59.60;;;;;;5052351;28;20411;-61
2022/06/17 09:31:50;;;;;;;4.28;2.30;;;23.00;59.60;;;;;;5052706;28;20374;-61
2022/06/17 09:34:26;;;;;;;4.40;2.42;;;23.00;59.60;;;;;;5052482;28;20045;-61
2022/06/17 09:36:56;;;;;;;3.00;2.00;;;23.00;59.70;;;;;;5053467;28;20045;-61
2022/06/17 09:39:24;;;;;;;4.18;2.25;;;23.00;59.80;;;;;;5053029;28;20067;-59
2022/06/17 09:41:57;;;;;;;4.47;2.10;;;23.00;59.70;;;;;;5053448;28;20041;-60
2022/06/17 09:44:30;;;;;;;4.88;2.35;;;23.00;59.70;;;;;;5051634;28;20095;-60
2022/06/17 09:47:20;;;;;;;2.67;1.95;;;23.00;59.80;;;;;;5050792;28;20091;-60
2022/06/17 09:49:50;;;;;;;4.00;2.20;;;23.00;59.80;;;;;;5050824;28;20060;-60
2022/06/17 09:52:20;;;;;;;5.20;2.42;;;22.90;59.70;;;;;;5053009;28;20130;-60
2022/06/17 09:54:54;;;;;;;3.55;2.40;;;23.00;59.80;;;;;;5053590;28;20067;-59
2022/06/17 09:57:45;;;;;;;3.75;2.42;;;23.00;59.80;;;;;;5053205;28;20041;-58
2022/06/17 10:00:14;;;;;;;7.55;2.40;;;23.00;59.90;;;;;;5052787;28;20060;-59
2022/06/17 10:02:53;;;;;;;4.18;2.40;;;23.00;59.80;;;;;;5053980;28;20539;-59
2022/06/17 10:05:40;;;;;;;5.70;2.55;;;23.00;59.90;;;;;;5053647;28;20090;-59
2022/06/17 10:08:09;;;;;;;4.25;2.45;;;23.00;59.80;;;;;;5053245;28;20041;-59
2022/06/17 10:10:43;;;;;;;3.83;2.25;;;23.00;59.80;;;;;;5053037;28;20044;-59
2022/06/17 10:13:20;;;;;;;4.00;2.60;;;23.00;59.80;;;;;;5054407;28;20048;-59
2022/06/17 10:19:07;;;;;;;4.60;2.60;;;23.10;59.90;;;;;;5053876;28;20052;-59
2022/06/17 10:21:50;;;;;;;4.93;2.72;;;23.10;60.00;;;;;;5053284;28;20045;-59
2022/06/17 10:24:21;;;;;;;5.15;2.45;;;23.10;59.90;;;;;;5053802;28;20049;-59
2022/06/17 10:27:13;;;;;;;10.00;3.00;;;23.10;59.80;;;;;;5053122;28;20052;-60
2022/06/17 10:30:03;;;;;;;3.97;2.40;;;23.10;59.80;;;;;;5051771;28;20515;-59
2022/06/17 10:32:29;;;;;;;5.25;2.60;;;23.10;59.70;;;;;;5054236;28;20045;-59
2022/06/17 10:34:58;;;;;;;6.45;2.75;;;23.10;59.70;;;;;;5051142;28;20041;-60
2022/06/17 10:37:24;;;;;;;4.55;2.50;;;23.10;59.80;;;;;;5052391;28;20056;-59
2022/06/17 10:39:50;;;;;;;3.50;2.67;;;23.10;59.80;;;;;;5051841;28;20037;-60
2022/06/17 10:42:17;;;;;;;5.93;2.58;;;23.10;59.70;;;;;;5051661;28;20052;-60
2022/06/17 10:44:49;;;;;;;4.93;2.58;;;23.10;59.70;;;;;;5055981;28;20120;-60
2022/06/17 10:47:40;;;;;;;4.03;2.47;;;23.20;59.70;;;;;;5068444;28;20037;-59
2022/06/17 10:50:14;;;;;;;7.10;2.40;;;23.20;59.60;;;;;;5071614;28;20048;-60
2022/06/17 10:52:49;;;;;;;4.43;2.60;;;23.10;59.50;;;;;;5073084;28;20119;-60
2022/06/17 10:55:19;;;;;;;6.15;2.67;;;23.20;59.50;;;;;;5072168;28;20094;-60
2022/06/17 10:58:08;;;;;;;6.07;2.30;;;23.20;59.30;;;;;;5070941;28;20063;-60
2022/06/17 11:00:34;;;;;;;3.78;2.55;;;23.20;59.10;;;;;;5073030;28;20041;-60
2022/06/17 11:03:29;;;;;;;5.45;2.67;;;23.20;59.20;;;;;;5070785;28;20049;-60
2022/06/17 11:06:02;;;;;;;5.00;2.70;;;23.10;58.80;;;;;;5072656;28;20055;-60
2022/06/17 11:08:48;;;;;;;5.80;2.70;;;23.20;58.80;;;;;;5069594;28;20475;-59
2022/06/17 11:13:58;;;;;;;7.35;2.92;;;23.20;58.60;;;;;;5072706;28;20048;-60
2022/06/17 11:16:24;;;;;;;7.00;3.28;;;23.20;58.60;;;;;;5072120;28;20067;-60
2022/06/17 11:19:00;;;;;;;10.43;3.15;;;23.20;58.60;;;;;;5069854;28;20064;-60
2022/06/17 11:21:30;;;;;;;7.45;3.00;;;23.20;58.50;;;;;;5071712;28;20377;-60
2022/06/17 11:23:58;;;;;;;6.95;3.03;;;23.20;58.40;;;;;;5067575;28;20071;-60
2022/06/17 11:26:27;;;;;;;6.07;3.22;;;23.20;58.30;;;;;;5050534;28;20125;-60
2022/06/17 11:28:55;;;;;;;5.68;2.97;;;23.20;58.20;;;;;;5051463;28;20090;-60
2022/06/17 11:31:23;;;;;;;6.82;2.83;;;23.20;58.10;;;;;;5034212;28;20048;-60
2022/06/17 11:33:52;;;;;;;6.45;2.83;;;23.20;58.10;;;;;;5052548;28;20049;-59
2022/06/17 11:36:22;;;;;;;5.45;2.70;;;23.20;58.00;;;;;;5052792;28;20116;-60
2022/06/17 11:38:48;;;;;;;5.10;2.63;;;23.20;57.90;;;;;;5051580;28;20041;-59
2022/06/17 11:41:27;;;;;;;6.60;2.90;;;23.20;57.90;;;;;;5052802;28;20037;-60
2022/06/17 11:43:54;;;;;;;4.55;2.50;;;23.20;57.80;;;;;;5051690;28;20052;-60
2022/06/17 11:46:24;;;;;;;5.43;2.47;;;23.20;57.70;;;;;;5051517;28;20175;-60
2022/06/17 11:48:55;;;;;;;7.95;2.13;;;23.20;57.50;;;;;;5050384;28;20060;-60
2022/06/17 11:51:40;;;;;;;5.47;2.72;;;23.20;57.40;;;;;;5050706;28;20053;-60
2022/06/17 11:54:17;;;;;;;5.63;2.47;;;23.20;57.40;;;;;;5050759;28;20056;-60
2022/06/17 11:56:43;;;;;;;4.72;2.70;;;23.20;57.50;;;;;;5051085;28;20041;-60
2022/06/17 11:59:15;;;;;;;5.45;2.95;;;23.20;57.50;;;;;;5051140;28;20041;-59
2022/06/17 12:01:42;;;;;;;5.10;2.53;;;23.20;57.40;;;;;;5051198;28;20102;-61
2022/06/17 12:04:30;;;;;;;4.88;2.83;;;23.30;57.50;;;;;;5051134;28;20123;-60
2022/06/17 12:06:56;;;;;;;5.88;2.20;;;23.30;57.90;;;;;;5051276;28;20049;-60
2022/06/17 12:09:52;;;;;;;6.40;2.50;;;23.30;57.70;;;;;;5051030;28;20102;-59
2022/06/17 12:12:18;;;;;;;4.75;2.60;;;23.30;57.70;;;;;;5034473;28;20049;-59
2022/06/17 12:14:56;;;;;;;4.13;2.33;;;23.30;57.70;;;;;;5050977;28;20045;-59
2022/06/17 12:17:22;;;;;;;6.32;2.60;;;23.30;57.70;;;;;;5052069;28;20041;-58
2022/06/17 12:19:47;;;;;;;7.65;2.70;;;23.30;58.40;;;;;;5052010;28;20132;-59
2022/06/17 12:22:32;;;;;;;4.95;2.38;;;23.30;57.70;;;;;;5051600;28;20081;-59
2022/06/17 12:25:06;;;;;;;4.53;2.35;;;23.30;57.70;;;;;;5050831;28;20119;-58
2022/06/17 12:27:32;;;;;;;6.85;2.20;;;23.40;57.80;;;;;;5050436;28;20045;-59
2022/06/17 12:30:01;;;;;;;3.83;2.25;;;23.40;57.70;;;;;;5052840;28;20067;-58
2022/06/17 12:32:58;;;;;;;4.80;2.20;;;23.40;57.70;;;;;;5056258;28;20060;-58
2022/06/17 12:35:46;;;;;;;5.30;2.30;;;23.40;57.60;;;;;;5055633;28;20049;-58
2022/06/17 12:38:14;;;;;;;4.22;2.10;;;23.40;57.70;;;;;;5054909;28;20094;-59
2022/06/17 12:40:46;;;;;;;3.58;2.22;;;23.40;57.60;;;;;;5055588;28;20127;-59
2022/06/17 12:43:25;;;;;;;4.90;2.10;;;23.40;57.50;;;;;;5054969;28;20497;-59
2022/06/17 12:46:25;;;;;;;5.20;2.33;;;23.40;58.20;;;;;;5055479;28;20485;-59
2022/06/17 12:53:14;;;;;;;5.88;2.28;;;23.40;57.50;;;;;;4986410;28;20057;-59
2022/06/17 12:55:08;;;;;;;3.53;2.28;;;23.50;57.50;;;;;;5054613;28;20049;-59
2022/06/17 12:57:47;;;;;;;4.95;2.35;;;23.50;57.50;;;;;;5053710;28;20489;-59
2022/06/17 13:00:33;;;;;;;4.72;2.22;;;23.50;57.40;;;;;;5054624;28;20063;-59
2022/06/17 13:03:28;;;;;;;5.55;2.30;;;23.50;57.50;;;;;;5053089;28;20088;-59
2022/06/17 13:05:55;;;;;;;3.90;1.90;;;23.50;57.40;;;;;;5055400;28;20045;-58
2022/06/17 13:08:39;;;;;;;3.35;2.10;;;23.50;57.40;;;;;;5054098;28;20400;-59
2022/06/17 13:11:12;;;;;;;5.10;2.40;;;23.50;57.40;;;;;;5053475;28;20377;-58
2022/06/17 13:13:47;;;;;;;4.07;2.30;;;23.50;57.50;;;;;;5061267;28;20089;-58
2022/06/17 13:16:33;;;;;;;3.55;1.95;;;23.60;57.60;;;;;;5070981;28;20155;-59
2022/06/17 13:19:14;;;;;;;4.10;2.13;;;23.60;57.70;;;;;;5074269;28;20044;-60
2022/06/17 13:21:54;;;;;;;3.70;2.10;;;23.60;57.90;;;;;;5073565;28;20094;-59